Time;durP1;ratioP1;P1;durP2;ratioP2;P2;SDS_P1;SDS_P2;PMS_P1;PMS_P2;Temp;Humidity;BMP_temperature;BMP_pressure;BME280_temperature;BME280_humidity;BME280_pressure;Samples;Min_cycle;Max_cycle;Signal;HPM_P1;HPM_P2
2021/05/27 00:00:21;;;;;;;5.28;4.60;;;;;;;20.16;52.06;99444.56;4877575;29;20053;-81
2021/05/27 00:02:46;;;;;;;4.30;4.00;;;;;;;19.88;52.17;99394.50;4877889;29;20371;-81
2021/05/27 00:05:13;;;;;;;4.55;4.15;;;;;;;20.31;52.44;99463.59;4876352;29;20029;-81
2021/05/27 00:07:39;;;;;;;5.35;4.85;;;;;;;20.29;52.59;99465.69;4876282;29;20088;-82
2021/05/27 00:10:07;;;;;;;5.65;4.45;;;;;;;19.39;52.74;99347.78;4876181;29;20033;-81
2021/05/27 00:12:33;;;;;;;4.95;4.45;;;;;;;19.51;52.91;99369.97;4877328;29;20033;-82
2021/05/27 00:14:59;;;;;;;5.35;4.85;;;;;;;19.45;52.90;99360.22;4877088;29;20029;-81
2021/05/27 00:17:24;;;;;;;4.10;3.70;;;;;;;19.92;52.98;99454.59;4877414;29;20029;-81
2021/05/27 00:19:50;;;;;;;4.40;4.00;;;;;;;20.18;53.08;99484.53;4879045;29;20025;-80
2021/05/27 00:22:15;;;;;;;3.97;3.67;;;;;;;19.11;52.91;99310.31;4880888;29;20029;-80
2021/05/27 00:24:41;;;;;;;4.80;4.05;;;;;;;20.17;53.13;99481.06;4880864;29;20048;-75
2021/05/27 00:27:06;;;;;;;4.15;3.55;;;;;;;20.07;52.99;99480.88;4879568;29;20025;-76
2021/05/27 00:29:33;;;;;;;4.30;3.88;;;;;;;19.66;53.33;99407.78;4880850;29;20108;-76
2021/05/27 00:31:58;;;;;;;4.53;4.15;;;;;;;19.88;53.42;99460.66;4879657;29;20056;-75
2021/05/27 00:34:24;;;;;;;4.35;4.03;;;;;;;19.58;53.57;99394.78;4880826;29;20435;-78
2021/05/27 00:36:50;;;;;;;5.82;4.28;;;;;;;20.10;53.60;99472.34;4879517;29;20022;-78
2021/05/27 00:39:15;;;;;;;4.93;4.53;;;;;;;19.72;54.02;99438.16;4880799;29;20417;-79
2021/05/27 00:41:41;;;;;;;4.28;3.95;;;;;;;19.88;54.32;99479.44;4880783;29;20028;-77
2021/05/27 00:44:26;;;;;;;5.57;5.07;;;;;;;19.48;54.44;99407.13;4880716;29;20493;-78
2021/05/27 00:46:54;;;;;;;5.45;5.03;;;;;;;19.53;54.48;99426.81;4880550;29;20085;-76
2021/05/27 00:49:20;;;;;;;5.78;5.28;;;;;;;19.92;54.64;99467.19;4880666;29;20093;-78
2021/05/27 00:51:47;;;;;;;6.68;5.20;;;;;;;19.38;54.84;99388.19;4880300;29;20109;-78
2021/05/27 00:54:13;;;;;;;4.68;4.30;;;;;;;19.46;54.82;99396.66;4880428;29;20029;-77
2021/05/27 00:56:40;;;;;;;5.65;5.20;;;;;;;19.66;55.08;99434.56;4878849;29;20054;-78
2021/05/27 00:59:06;;;;;;;5.35;4.85;;;;;;;19.23;54.97;99356.56;4878799;29;20123;-77
2021/05/27 01:01:32;;;;;;;5.18;4.78;;;;;;;19.65;55.06;99418.72;4878962;29;20119;-78
2021/05/27 01:03:57;;;;;;;5.40;4.90;;;;;;;19.52;55.29;99419.84;4880198;29;20125;-77
2021/05/27 01:06:23;;;;;;;4.97;4.57;;;;;;;19.74;55.24;99443.25;4880238;29;20021;-77
2021/05/27 01:08:48;;;;;;;5.35;4.68;;;;;;;19.04;55.39;99316.63;4880319;29;20044;-77
2021/05/27 01:11:16;;;;;;;5.80;5.22;;;;;;;19.93;55.27;99439.31;4878950;29;20033;-77
2021/05/27 01:13:42;;;;;;;6.07;5.47;;;;;;;19.84;55.49;99443.44;4878816;29;20029;-77
2021/05/27 01:16:15;;;;;;;6.30;4.85;;;;;;;19.81;55.82;99443.94;4880217;29;20160;-77
2021/05/27 01:18:41;;;;;;;6.60;6.00;;;;;;;19.45;55.64;99410.28;4880235;29;20550;-78
2021/05/27 01:21:07;;;;;;;6.60;5.70;;;;;;;19.50;55.73;99413.06;4879945;29;20104;-77
2021/05/27 01:23:32;;;;;;;5.97;5.40;;;;;;;19.65;55.72;99414.19;4879879;29;20021;-82
2021/05/27 01:25:59;;;;;;;9.52;6.00;;;;;;;19.72;55.82;99434.66;4879714;29;20025;-82
2021/05/27 01:28:31;;;;;;;6.65;5.95;;;;;;;19.04;55.94;99318.47;4879678;29;20560;-83
2021/05/27 01:30:57;;;;;;;6.65;5.90;;;;;;;18.88;55.92;99295.16;4878130;29;20025;-82
2021/05/27 01:33:23;;;;;;;6.03;5.22;;;;;;;19.80;56.15;99426.22;4879992;29;20091;-82
2021/05/27 01:35:50;;;;;;;6.93;6.20;;;;;;;19.79;56.04;99421.94;4879727;29;20057;-82
2021/05/27 01:38:18;;;;;;;6.82;5.93;;;;;;;19.31;56.17;99342.81;4879695;29;20033;-81
2021/05/27 01:40:45;;;;;;;6.63;6.07;;;;;;;19.10;56.18;99330.91;4878377;29;20033;-82
2021/05/27 01:43:11;;;;;;;7.15;6.45;;;;;;;18.73;56.17;99277.75;4878417;29;20033;-82
2021/05/27 01:45:37;;;;;;;8.50;7.32;;;;;;;19.32;56.94;99419.38;4879685;29;20031;-82
2021/05/27 01:48:03;;;;;;;6.35;5.85;;;;;;;19.00;57.08;99362.81;4879535;29;20021;-82
2021/05/27 01:50:29;;;;;;;7.18;6.47;;;;;;;18.68;56.90;99307.06;4879471;29;20048;-82
2021/05/27 01:53:03;;;;;;;6.93;6.32;;;;;;;19.29;57.17;99433.25;4879297;29;20525;-82
2021/05/27 01:55:29;;;;;;;8.00;7.30;;;;;;;19.47;57.17;99426.94;4879492;29;20402;-82
2021/05/27 01:57:56;;;;;;;8.20;7.40;;;;;;;19.40;57.40;99423.56;4879094;29;20029;-81
2021/05/27 02:00:22;;;;;;;7.05;6.07;;;;;;;18.79;57.64;99337.50;4879416;29;20031;-82
2021/05/27 02:02:48;;;;;;;7.80;7.07;;;;;;;18.37;57.26;99272.66;4877942;29;20017;-81
2021/05/27 02:05:14;;;;;;;7.82;7.05;;;;;;;19.19;57.36;99398.25;4877960;29;20025;-82
2021/05/27 02:07:41;;;;;;;6.88;6.22;;;;;;;19.06;57.24;99380.59;4879091;29;20021;-82
2021/05/27 02:10:06;;;;;;;7.53;6.72;;;;;;;19.24;57.04;99393.00;4877667;29;20028;-82
2021/05/27 02:12:32;;;;;;;7.63;6.97;;;;;;;18.96;57.16;99345.59;4879207;29;20025;-81
2021/05/27 02:14:57;;;;;;;7.28;6.53;;;;;;;19.58;57.04;99447.53;4879147;29;20040;-82
2021/05/27 02:17:23;;;;;;;7.47;6.78;;;;;;;18.85;57.08;99325.88;4878869;29;20494;-81
2021/05/27 02:19:48;;;;;;;8.15;6.75;;;;;;;18.94;57.02;99340.50;4877901;29;20033;-82
2021/05/27 02:22:14;;;;;;;7.78;6.97;;;;;;;18.98;56.98;99341.66;4878788;29;20029;-81
2021/05/27 02:24:39;;;;;;;9.30;6.32;;;;;;;19.32;56.87;99390.78;4878889;29;20029;-78
2021/05/27 02:27:05;;;;;;;6.95;6.40;;;;;;;19.03;56.82;99339.06;4878668;29;20486;-77
2021/05/27 02:29:30;;;;;;;10.18;9.20;;;;;;;19.22;56.75;99376.34;4877370;29;20524;-77
2021/05/27 02:31:56;;;;;;;15.23;13.93;;;;;;;19.02;57.41;99382.94;4878547;29;20053;-77
2021/05/27 02:34:22;;;;;;;13.10;11.45;;;;;;;19.42;57.46;99449.06;4878596;29;20094;-77
2021/05/27 02:36:48;;;;;;;15.02;13.52;;;;;;;18.90;57.37;99355.41;4878592;29;20036;-78
2021/05/27 02:39:14;;;;;;;16.80;15.02;;;;;;;19.31;57.58;99441.84;4878870;29;20025;-78
2021/05/27 02:41:40;;;;;;;13.90;12.65;;;;;;;19.39;57.37;99420.09;4878056;29;20025;-77
2021/05/27 02:44:06;;;;;;;12.02;10.82;;;;;;;18.94;57.16;99367.25;4878731;29;20498;-78
2021/05/27 02:46:31;;;;;;;17.00;15.27;;;;;;;18.93;57.05;99340.72;4878756;29;20021;-77
2021/05/27 02:48:56;;;;;;;17.90;16.02;;;;;;;19.62;57.17;99443.31;4878260;29;20036;-77
2021/05/27 02:51:22;;;;;;;21.73;19.52;;;;;;;19.36;57.25;99394.59;4878061;29;20052;-77
2021/05/27 02:53:47;;;;;;;20.90;18.77;;;;;;;19.43;57.10;99394.47;4878795;29;20021;-77
2021/05/27 02:56:13;;;;;;;23.40;21.05;;;;;;;19.29;57.26;99380.53;4878135;29;20025;-77
2021/05/27 02:58:39;;;;;;;24.15;21.55;;;;;;;19.41;57.36;99387.72;4878062;29;20455;-77
2021/05/27 03:01:05;;;;;;;25.42;22.48;;;;;;;18.76;57.40;99278.31;4876859;29;20021;-77
2021/05/27 03:03:30;;;;;;;24.67;22.13;;;;;;;19.12;57.34;99334.16;4878352;29;20089;-78
2021/05/27 03:05:58;;;;;;;26.02;23.40;;;;;;;19.19;57.43;99366.94;4877093;29;20025;-77
2021/05/27 03:08:23;;;;;;;24.50;22.10;;;;;;;18.96;57.49;99322.34;4878077;29;20105;-77
2021/05/27 03:10:48;;;;;;;24.27;21.95;;;;;;;19.47;57.31;99387.56;4878008;29;20104;-77
2021/05/27 03:13:14;;;;;;;23.98;21.58;;;;;;;19.30;57.05;99378.66;4877937;29;20064;-77
2021/05/27 03:15:39;;;;;;;23.80;21.45;;;;;;;19.51;57.36;99402.09;4877969;29;20025;-77
2021/05/27 03:18:06;;;;;;;22.10;19.75;;;;;;;19.03;57.37;99338.25;4877994;29;20033;-77
2021/05/27 03:20:33;;;;;;;24.17;21.60;;;;;;;19.47;58.02;99435.78;4876550;29;20483;-78
2021/05/27 03:22:59;;;;;;;24.27;21.70;;;;;;;19.37;58.25;99440.94;4876638;29;20029;-76
2021/05/27 03:25:25;;;;;;;23.42;20.98;;;;;;;19.14;58.11;99392.78;4877930;29;20417;-78
2021/05/27 03:27:50;;;;;;;24.70;20.42;;;;;;;19.51;58.15;99442.28;4877872;29;20546;-77
2021/05/27 03:30:16;;;;;;;28.45;23.45;;;;;;;19.51;58.17;99436.91;4877693;29;20025;-77
2021/05/27 03:32:41;;;;;;;24.15;21.55;;;;;;;19.10;58.05;99383.59;4877820;29;20699;-77
2021/05/27 03:35:09;;;;;;;28.10;25.15;;;;;;;19.46;57.97;99436.00;4877642;29;20025;-77
2021/05/27 03:37:34;;;;;;;24.05;21.65;;;;;;;19.56;57.78;99445.09;4877293;29;20029;-77
2021/05/27 03:42:42;;;;;;;28.73;25.73;;;;;;;19.56;57.33;99414.81;4877996;29;20553;-77
2021/05/27 03:45:14;;;;;;;24.75;22.35;;;;;;;19.81;57.35;99438.56;4877807;29;20029;-77
2021/05/27 03:47:40;;;;;;;25.30;22.67;;;;;;;19.44;57.43;99381.88;4877657;29;20413;-77
2021/05/27 03:50:07;;;;;;;28.40;25.73;;;;;;;19.86;57.41;99438.66;4876299;29;20517;-78
2021/05/27 03:52:33;;;;;;;24.40;21.83;;;;;;;19.55;57.13;99373.81;4878410;29;20073;-77
2021/05/27 03:54:59;;;;;;;29.85;26.85;;;;;;;19.77;57.11;99414.13;4881541;29;20490;-77
2021/05/27 03:57:24;;;;;;;26.20;23.48;;;;;;;19.91;57.21;99436.06;4880166;29;20033;-76
2021/05/27 04:02:34;;;;;;;26.08;23.58;;;;;;;19.89;57.07;99422.09;4881524;29;20068;-77
2021/05/27 04:07:43;;;;;;;24.63;20.95;;;;;;;19.46;56.80;99345.78;4881610;29;20040;-78
2021/05/27 04:10:09;;;;;;;26.13;22.70;;;;;;;20.01;56.85;99425.53;4879987;29;20021;-78
2021/05/27 04:12:46;;;;;;;26.05;23.38;;;;;;;20.06;56.83;99420.25;4881152;29;20025;-78
2021/05/27 04:15:27;;;;;;;25.90;23.25;;;;;;;20.07;56.68;99408.50;4881187;29;20491;-77
2021/05/27 04:18:05;;;;;;;23.90;21.38;;;;;;;20.08;56.52;99414.69;4881248;29;20029;-77
2021/05/27 04:20:36;;;;;;;22.92;20.17;;;;;;;20.02;56.42;99405.72;4881097;29;20039;-77
2021/05/27 04:23:08;;;;;;;20.60;18.52;;;;;;;20.21;56.45;99423.22;4879434;29;20531;-77
2021/05/27 04:25:33;;;;;;;19.60;17.70;;;;;;;19.65;56.09;99319.63;4880801;29;20036;-77
2021/05/27 04:28:00;;;;;;;18.13;16.27;;;;;;;20.21;55.97;99400.94;4880970;29;20099;-77
2021/05/27 04:30:27;;;;;;;18.48;15.65;;;;;;;19.84;55.90;99337.09;4880944;29;20532;-77
2021/05/27 04:33:05;;;;;;;18.45;16.42;;;;;;;20.15;56.13;99400.06;4880719;29;20029;-77
2021/05/27 04:35:41;;;;;;;18.95;17.17;;;;;;;20.20;56.44;99428.81;4879336;29;20035;-77
2021/05/27 04:38:15;;;;;;;22.83;18.13;;;;;;;20.15;56.45;99418.81;4880676;29;20025;-77
2021/05/27 04:40:43;;;;;;;22.85;19.00;;;;;;;20.19;56.52;99422.66;4880749;29;20089;-77
2021/05/27 04:43:08;;;;;;;18.00;16.10;;;;;;;20.24;56.44;99421.91;4880545;29;20036;-77
2021/05/27 04:45:34;;;;;;;20.05;17.95;;;;;;;19.39;56.24;99291.56;4880687;29;20028;-77
2021/05/27 04:48:03;;;;;;;18.75;16.80;;;;;;;20.31;56.60;99450.19;4880483;29;20105;-77
2021/05/27 04:50:30;;;;;;;19.30;17.02;;;;;;;19.23;56.02;99266.38;4880400;29;20108;-77
2021/05/27 04:52:55;;;;;;;19.58;17.52;;;;;;;19.92;56.09;99384.09;4880257;29;20048;-76
2021/05/27 04:55:21;;;;;;;20.90;18.75;;;;;;;19.70;56.08;99337.66;4880358;29;20032;-77
2021/05/27 04:57:46;;;;;;;24.33;21.92;;;;;;;19.49;56.17;99323.88;4880315;29;20020;-77
2021/05/27 05:00:15;;;;;;;26.02;23.05;;;;;;;20.27;55.93;99440.19;4880392;29;20081;-77
2021/05/27 05:02:41;;;;;;;27.23;24.23;;;;;;;19.99;56.50;99415.06;4880153;29;20028;-76
2021/05/27 05:05:09;;;;;;;37.95;31.17;;;;;;;20.13;56.20;99420.13;4870241;29;20115;-77
2021/05/27 05:07:35;;;;;;;39.88;30.60;;;;;;;19.96;56.29;99399.44;4867765;29;20108;-77
2021/05/27 05:10:00;;;;;;;41.83;32.80;;;;;;;19.75;56.13;99345.78;4860453;29;20116;-76
2021/05/27 05:12:26;;;;;;;40.58;28.73;;;;;;;20.02;56.20;99386.94;4861600;29;20444;-77
2021/05/27 05:14:51;;;;;;;36.90;27.58;;;;;;;20.26;56.08;99412.56;4872526;29;20520;-77
2021/05/27 05:17:16;;;;;;;33.55;25.92;;;;;;;20.31;55.92;99406.47;4879899;29;20025;-77
2021/05/27 05:19:42;;;;;;;29.15;22.75;;;;;;;20.31;55.67;99404.59;4879852;29;20414;-77
2021/05/27 05:22:07;;;;;;;31.33;25.83;;;;;;;20.13;55.47;99351.25;4879795;29;20131;-78
2021/05/27 05:24:33;;;;;;;30.58;25.70;;;;;;;20.66;55.50;99456.38;4879564;29;20017;-78
2021/05/27 05:26:58;;;;;;;39.25;30.35;;;;;;;19.57;55.54;99326.19;4879719;29;20025;-78
2021/05/27 05:29:24;;;;;;;26.42;22.45;;;;;;;20.39;55.70;99405.25;4863635;29;20483;-77
2021/05/27 05:31:49;;;;;;;26.30;23.45;;;;;;;20.57;55.32;99429.16;4859841;29;20028;-78
2021/05/27 05:34:15;;;;;;;24.75;22.20;;;;;;;20.35;55.16;99399.56;4861160;29;20028;-77
2021/05/27 05:36:41;;;;;;;34.30;27.45;;;;;;;20.36;55.02;99408.41;4862960;29;20067;-78
2021/05/27 05:39:07;;;;;;;32.58;27.65;;;;;;;20.47;55.02;99412.91;4869747;29;20111;-77
2021/05/27 05:41:32;;;;;;;31.92;26.02;;;;;;;20.39;54.76;99384.63;4878089;29;20057;-78
2021/05/27 05:43:58;;;;;;;33.17;25.40;;;;;;;20.68;55.07;99473.84;4864555;29;20193;-78
2021/05/27 05:46:24;;;;;;;33.10;23.92;;;;;;;20.27;55.19;99402.66;4864523;29;20060;-78
2021/05/27 05:48:50;;;;;;;31.50;21.63;;;;;;;19.88;55.52;99345.44;4879083;29;20029;-78
2021/05/27 05:51:15;;;;;;;36.47;23.13;;;;;;;20.19;55.51;99386.97;4867541;29;20394;-77
2021/05/27 05:53:40;;;;;;;34.30;22.13;;;;;;;19.57;55.50;99296.75;4873435;29;20021;-77
2021/05/27 05:56:06;;;;;;;36.90;25.30;;;;;;;20.45;55.62;99433.81;4865486;29;20422;-78
2021/05/27 05:58:32;;;;;;;39.10;26.10;;;;;;;19.64;55.39;99307.28;4871845;29;20518;-77
2021/05/27 06:00:57;;;;;;;32.30;22.48;;;;;;;20.69;55.36;99483.53;4874063;29;20483;-77
2021/05/27 06:03:23;;;;;;;21.70;18.15;;;;;;;20.59;55.40;99472.63;4860230;29;20108;-78
2021/05/27 06:05:48;;;;;;;16.10;14.70;;;;;;;19.96;55.21;99353.09;4859496;29;20029;-77
2021/05/27 06:08:14;;;;;;;17.00;15.30;;;;;;;20.50;55.21;99437.38;4871810;29;20550;-77
2021/05/27 06:10:39;;;;;;;16.80;15.20;;;;;;;20.43;55.28;99412.59;4872634;29;20021;-78
2021/05/27 06:13:05;;;;;;;14.95;13.65;;;;;;;20.59;54.85;99427.03;4869872;29;20029;-77
2021/05/27 06:15:31;;;;;;;16.75;15.07;;;;;;;20.75;54.53;99446.84;4869295;29;20120;-77
2021/05/27 06:17:59;;;;;;;14.43;13.15;;;;;;;20.93;54.50;99452.78;4876492;29;20395;-78
2021/05/27 06:20:26;;;;;;;14.55;13.18;;;;;;;20.63;54.60;99415.56;4877678;29;20480;-78
2021/05/27 06:22:53;;;;;;;20.50;17.58;;;;;;;20.42;54.67;99421.69;4872860;29;20037;-78
2021/05/27 06:25:21;;;;;;;16.05;14.63;;;;;;;20.11;54.86;99358.72;4865515;29;20033;-77
2021/05/27 06:27:47;;;;;;;16.45;14.75;;;;;;;20.66;54.62;99440.28;4864290;29;20163;-77
2021/05/27 06:30:13;;;;;;;16.98;15.18;;;;;;;20.81;54.62;99460.13;4866471;29;20454;-77
2021/05/27 06:32:38;;;;;;;16.23;14.52;;;;;;;20.48;54.61;99414.53;4871070;29;20033;-78
2021/05/27 06:35:10;;;;;;;14.95;13.63;;;;;;;20.89;54.57;99475.81;4871767;29;20137;-78
2021/05/27 06:37:37;;;;;;;14.70;13.15;;;;;;;20.41;54.42;99376.34;4862118;29;20044;-78
2021/05/27 06:40:08;;;;;;;12.52;11.32;;;;;;;20.99;54.05;99477.00;4871293;29;20525;-77
2021/05/27 06:42:34;;;;;;;17.15;15.45;;;;;;;20.64;53.58;99421.75;4863084;29;20107;-77
2021/05/27 06:44:59;;;;;;;14.48;13.18;;;;;;;21.01;53.54;99488.31;4878119;29;20025;-77
2021/05/27 06:47:25;;;;;;;19.27;17.35;;;;;;;20.63;53.39;99420.13;4866614;29;20036;-78
2021/05/27 06:49:50;;;;;;;20.42;18.27;;;;;;;21.08;53.33;99473.66;4875779;29;20033;-77
2021/05/27 06:52:16;;;;;;;23.95;21.48;;;;;;;21.32;53.00;99478.81;4876190;29;20517;-78
2021/05/27 06:54:41;;;;;;;28.23;25.45;;;;;;;20.93;52.88;99417.06;4872481;29;20169;-78
2021/05/27 06:57:06;;;;;;;25.25;22.77;;;;;;;21.09;52.76;99435.00;4871838;29;20036;-76
2021/05/27 06:59:32;;;;;;;22.08;19.88;;;;;;;20.83;52.70;99384.75;4865941;29;20037;-76
2021/05/27 07:01:57;;;;;;;19.55;17.60;;;;;;;20.69;52.50;99327.91;4878050;29;20055;-77
2021/05/27 07:04:23;;;;;;;19.67;17.50;;;;;;;21.02;52.02;99366.44;4859772;29;20032;-77
2021/05/27 07:06:48;;;;;;;19.58;17.60;;;;;;;21.81;52.16;99477.78;4873476;29;20029;-77
2021/05/27 07:09:14;;;;;;;17.55;15.68;;;;;;;21.47;51.74;99420.72;4872654;29;20040;-77
2021/05/27 07:11:40;;;;;;;17.60;15.70;;;;;;;21.54;51.88;99402.53;4865696;29;20025;-76
2021/05/27 07:14:06;;;;;;;13.07;11.40;;;;;;;21.33;51.37;99384.56;4860811;29;20495;-76
2021/05/27 07:16:32;;;;;;;11.88;10.77;;;;;;;21.47;50.92;99396.53;4865100;29;20036;-77
2021/05/27 07:18:58;;;;;;;17.55;15.95;;;;;;;21.44;50.71;99429.28;4876120;29;20541;-77
2021/05/27 07:21:24;;;;;;;20.05;18.08;;;;;;;21.25;50.64;99406.50;4858675;29;20104;-76
2021/05/27 07:23:49;;;;;;;18.23;16.23;;;;;;;21.01;50.76;99364.84;4875417;29;20028;-77
2021/05/27 07:26:15;;;;;;;19.85;17.90;;;;;;;21.00;50.71;99355.16;4872058;29;20025;-77
2021/05/27 07:28:40;;;;;;;19.20;17.27;;;;;;;21.12;50.73;99358.50;4868200;29;20410;-76
2021/05/27 07:31:06;;;;;;;19.27;17.27;;;;;;;21.32;50.84;99382.13;4863831;29;20021;-75
2021/05/27 07:33:33;;;;;;;22.73;20.15;;;;;;;21.59;51.26;99444.78;4875872;29;20113;-78
2021/05/27 07:35:58;;;;;;;14.95;13.45;;;;;;;21.80;51.07;99470.81;4877269;29;20105;-76
2021/05/27 07:38:25;;;;;;;12.18;9.90;;;;;;;21.51;50.62;99416.44;4866507;29;20064;-78
2021/05/27 07:40:51;;;;;;;11.48;10.20;;;;;;;21.99;50.51;99491.94;4876335;29;20498;-77
2021/05/27 07:43:16;;;;;;;10.93;10.02;;;;;;;21.83;50.45;99447.97;4862286;29;20145;-77
2021/05/27 07:45:42;;;;;;;11.52;10.48;;;;;;;21.96;50.17;99446.75;4863592;29;20029;-77
2021/05/27 07:48:08;;;;;;;9.65;8.60;;;;;;;22.37;49.96;99474.88;4877281;29;20029;-77
2021/05/27 07:50:33;;;;;;;8.95;8.05;;;;;;;22.33;49.63;99436.09;4877406;29;20025;-77
2021/05/27 07:52:59;;;;;;;9.55;8.73;;;;;;;22.47;49.88;99473.06;4876172;29;20446;-77
2021/05/27 07:55:26;;;;;;;8.02;7.20;;;;;;;22.22;49.69;99437.88;4876390;29;20044;-76
2021/05/27 07:57:52;;;;;;;9.25;6.68;;;;;;;22.28;49.55;99444.91;4875377;29;20040;-76
2021/05/27 08:00:18;;;;;;;8.80;6.20;;;;;;;22.30;49.28;99420.47;4874200;29;20025;-76
2021/05/27 08:02:44;;;;;;;6.85;6.15;;;;;;;22.72;49.26;99475.13;4876200;29;20033;-78
2021/05/27 08:05:10;;;;;;;8.27;7.38;;;;;;;22.38;48.85;99388.53;4876523;29;20041;-78
2021/05/27 08:07:37;;;;;;;8.23;5.60;;;;;;;22.58;48.69;99422.03;4866917;29;20032;-78
2021/05/27 08:10:03;;;;;;;8.32;5.88;;;;;;;22.85;48.51;99436.22;4872045;29;20044;-77
2021/05/27 08:12:28;;;;;;;6.85;5.97;;;;;;;23.36;48.22;99491.16;4877134;29;20082;-78
2021/05/27 08:14:54;;;;;;;6.22;5.40;;;;;;;23.23;47.58;99464.72;4875045;29;20466;-77
2021/05/27 08:17:19;;;;;;;8.82;6.63;;;;;;;22.79;47.14;99383.38;4860768;29;20281;-77
2021/05/27 08:19:45;;;;;;;6.07;5.38;;;;;;;22.13;47.05;99254.69;4861256;29;20084;-78
2021/05/27 08:22:10;;;;;;;6.05;5.45;;;;;;;23.55;46.93;99451.13;4864327;29;20029;-77
2021/05/27 08:24:36;;;;;;;9.48;5.93;;;;;;;23.68;46.38;99425.53;4876898;29;20070;-83
2021/05/27 08:27:01;;;;;;;9.63;7.47;;;;;;;23.68;46.01;99418.25;4865594;29;20024;-83
2021/05/27 08:29:27;;;;;;;5.40;4.55;;;;;;;23.76;45.73;99420.44;4860554;29;20033;-83
2021/05/27 08:31:52;;;;;;;6.07;3.85;;;;;;;23.05;45.59;99308.97;4858777;29;20037;-83
2021/05/27 08:34:19;;;;;;;6.57;4.88;;;;;;;24.18;45.30;99450.97;4868215;29;20028;-83
2021/05/27 08:36:45;;;;;;;6.25;4.95;;;;;;;24.32;44.95;99468.28;4865285;29;20057;-84
2021/05/27 08:39:11;;;;;;;7.10;4.50;;;;;;;24.50;44.49;99475.81;4858716;29;20112;-83
2021/05/27 08:41:37;;;;;;;6.88;4.40;;;;;;;24.05;44.32;99417.25;4867119;29;20116;-83
2021/05/27 08:44:04;;;;;;;6.45;4.47;;;;;;;24.23;44.09;99449.09;4861458;29;20018;-81
2021/05/27 08:46:29;;;;;;;6.32;4.60;;;;;;;24.40;44.32;99498.22;4861627;29;20024;-83
2021/05/27 08:48:55;;;;;;;6.53;4.22;;;;;;;23.79;44.45;99427.22;4870463;29;20479;-82
2021/05/27 08:51:20;;;;;;;5.80;4.00;;;;;;;24.02;44.49;99466.34;4871015;29;20053;-85
2021/05/27 08:53:46;;;;;;;4.85;4.22;;;;;;;24.07;44.23;99450.97;4866394;29;20069;-84
2021/05/27 08:56:12;;;;;;;4.95;4.45;;;;;;;23.41;44.25;99356.47;4865370;29;20041;-84
2021/05/27 08:58:40;;;;;;;8.65;4.43;;;;;;;23.85;44.16;99409.97;4861751;29;20030;-84
2021/05/27 09:01:07;;;;;;;7.03;3.83;;;;;;;23.91;44.49;99391.91;4868480;29;20057;-83
2021/05/27 09:03:38;;;;;;;8.10;4.53;;;;;;;24.69;43.33;99476.91;4884742;29;20036;-85
2021/05/27 09:06:03;;;;;;;;;;;;;;;24.80;43.97;99474.19;4865705;29;20025;-84
2021/05/27 09:08:33;;;;;;;7.55;4.53;;;;;;;25.06;43.45;99483.91;4867500;29;19911;-84
2021/05/27 09:11:04;;;;;;;10.57;5.07;;;;;;;25.06;43.21;99470.38;4878081;29;20498;-85
2021/05/27 09:13:30;;;;;;;6.55;5.13;;;;;;;25.12;43.34;99482.78;4876150;29;20040;-85
2021/05/27 09:16:05;;;;;;;6.75;4.90;;;;;;;24.18;43.43;99359.25;4870349;29;20045;-84
2021/05/27 09:18:34;;;;;;;4.70;4.00;;;;;;;24.65;43.37;99478.53;4870488;29;20044;-83
2021/05/27 09:21:00;;;;;;;5.88;3.85;;;;;;;24.14;44.08;99399.44;4867518;29;20069;-83
2021/05/27 09:23:25;;;;;;;6.88;4.80;;;;;;;24.34;44.43;99472.31;4876618;29;20518;-78
2021/05/27 09:25:56;;;;;;;5.75;5.25;;;;;;;23.99;44.70;99421.03;4869059;29;20033;-78
2021/05/27 09:28:28;;;;;;;6.15;4.60;;;;;;;23.90;44.61;99455.81;4879451;29;20116;-79
2021/05/27 09:31:14;;;;;;;4.85;4.00;;;;;;;23.39;44.81;99395.53;4877969;29;20084;-78
2021/05/27 09:33:44;;;;;;;6.15;4.80;;;;;;;23.98;44.68;99459.88;4879532;29;20032;-79
2021/05/27 09:36:18;;;;;;;5.30;3.50;;;;;;;23.30;44.89;99397.13;4878520;29;20068;-78
2021/05/27 09:38:55;;;;;;;4.55;3.42;;;;;;;23.93;45.13;99457.97;4877311;29;20085;-78
2021/05/27 09:41:23;;;;;;;11.02;7.80;;;;;;;23.29;45.35;99357.78;4877700;29;20039;-79
2021/05/27 09:43:55;;;;;;;7.47;6.85;;;;;;;23.84;45.79;99459.56;4877799;29;20116;-78
2021/05/27 09:46:23;;;;;;;6.35;5.80;;;;;;;23.73;45.75;99445.22;4871904;29;20040;-80
2021/05/27 09:49:05;;;;;;;6.68;5.55;;;;;;;23.84;46.00;99462.25;4876757;29;20120;-79
2021/05/27 09:51:30;;;;;;;7.18;5.93;;;;;;;23.74;45.95;99451.44;4875639;29;20136;-78
2021/05/27 09:53:57;;;;;;;6.53;5.82;;;;;;;23.61;45.69;99374.59;4874580;29;20132;-78
2021/05/27 09:56:33;;;;;;;11.80;10.25;;;;;;;23.86;45.61;99390.00;4868716;29;20045;-79
2021/05/27 09:58:58;;;;;;;5.97;5.43;;;;;;;24.44;45.47;99452.63;4866151;29;20039;-79
2021/05/27 10:01:24;;;;;;;5.55;5.05;;;;;;;24.43;45.24;99436.69;4873164;29;20041;-79
2021/05/27 10:03:49;;;;;;;4.88;4.38;;;;;;;24.52;44.74;99433.19;4875787;29;20028;-78
2021/05/27 10:06:15;;;;;;;5.90;4.82;;;;;;;23.22;44.99;99201.00;4878202;29;20491;-78
2021/05/27 10:08:55;;;;;;;8.50;6.00;;;;;;;24.17;45.00;99358.44;4871409;29;20033;-79
2021/05/27 10:11:23;;;;;;;5.53;4.95;;;;;;;24.72;45.13;99451.25;4868694;29;20459;-79
2021/05/27 10:13:49;;;;;;;6.57;5.20;;;;;;;24.74;44.90;99448.28;4867366;29;20029;-79
2021/05/27 10:16:16;;;;;;;8.80;4.93;;;;;;;24.39;44.83;99371.66;4869984;29;20039;-79
2021/05/27 10:18:42;;;;;;;7.72;4.82;;;;;;;24.50;44.84;99388.66;4867875;29;20041;-78
2021/05/27 10:21:08;;;;;;;7.20;6.05;;;;;;;24.85;44.98;99445.28;4869067;29;20112;-78
2021/05/27 10:23:34;;;;;;;11.23;10.05;;;;;;;24.05;45.38;99356.03;4877217;29;20040;-78
2021/05/27 10:26:00;;;;;;;8.43;7.63;;;;;;;24.32;45.47;99409.72;4876821;29;20037;-78
2021/05/27 10:28:26;;;;;;;9.52;6.78;;;;;;;24.43;45.63;99439.41;4873279;29;20096;-78
2021/05/27 10:30:52;;;;;;;8.75;7.22;;;;;;;24.19;46.33;99452.59;4878314;29;20084;-78
2021/05/27 10:33:19;;;;;;;8.38;7.22;;;;;;;23.87;46.75;99417.78;4877371;29;20421;-78
2021/05/27 10:35:50;;;;;;;12.77;8.68;;;;;;;23.44;46.72;99345.16;4868490;29;20037;-78
2021/05/27 10:38:43;;;;;;;8.25;7.57;;;;;;;23.56;46.76;99357.59;4877110;29;20075;-79
2021/05/27 10:41:34;;;;;;;8.93;7.95;;;;;;;24.48;46.02;99434.81;4875937;29;20040;-79
2021/05/27 10:44:03;;;;;;;7.85;7.13;;;;;;;24.95;45.44;99428.25;4871734;29;20442;-78
2021/05/27 10:46:42;;;;;;;8.70;7.75;;;;;;;25.22;44.46;99423.31;4875703;29;20092;-78
2021/05/27 10:49:08;;;;;;;6.38;5.78;;;;;;;25.48;43.73;99382.66;4876047;29;20513;-78
2021/05/27 10:51:35;;;;;;;6.80;6.20;;;;;;;26.03;42.78;99407.75;4873986;29;20061;-78
2021/05/27 10:54:07;;;;;;;7.03;6.32;;;;;;;26.31;42.20;99404.28;4865879;29;20518;-79
2021/05/27 10:56:35;;;;;;;6.78;5.90;;;;;;;27.01;41.51;99423.66;4877768;29;20075;-79
2021/05/27 10:59:01;;;;;;;6.55;5.95;;;;;;;27.33;40.64;99433.03;4876956;29;20501;-79
2021/05/27 11:01:30;;;;;;;7.15;6.55;;;;;;;27.14;40.94;99425.69;4876337;29;20036;-79
2021/05/27 11:04:04;;;;;;;7.55;6.85;;;;;;;27.00;40.76;99416.63;4875448;29;20036;-78
2021/05/27 11:06:37;;;;;;;9.57;7.80;;;;;;;26.88;41.31;99392.63;4873384;29;20040;-79
2021/05/27 11:11:42;;;;;;;6.93;6.15;;;;;;;27.58;40.31;99410.22;4876585;29;20041;-79
2021/05/27 11:14:19;;;;;;;7.70;6.82;;;;;;;27.89;39.66;99413.31;4874193;29;20044;-78
2021/05/27 11:17:03;;;;;;;7.65;5.60;;;;;;;27.66;39.63;99398.72;4875439;29;20033;-78
2021/05/27 11:27:35;;;;;;;7.30;6.32;;;;;;;27.09;40.86;99360.69;4877728;29;20033;-84
2021/05/27 11:30:15;;;;;;;5.80;5.00;;;;;;;27.81;39.72;99380.31;4871772;29;20064;-84
2021/05/27 11:32:42;;;;;;;7.30;5.28;;;;;;;27.86;39.75;99374.00;4877443;29;20116;-84
2021/05/27 11:35:08;;;;;;;10.68;5.38;;;;;;;27.43;39.91;99322.53;4876218;29;20037;-83
2021/05/27 11:37:35;;;;;;;4.57;4.15;;;;;;;27.67;39.61;99355.03;4875236;29;20033;-83
2021/05/27 11:40:00;;;;;;;7.55;4.88;;;;;;;27.72;39.12;99338.69;4874345;29;20032;-83
2021/05/27 11:42:26;;;;;;;6.35;5.20;;;;;;;27.34;38.62;99215.84;4875483;29;20107;-85
2021/05/27 11:44:56;;;;;;;6.97;4.65;;;;;;;28.39;38.08;99293.03;4867380;29;20037;-83